sensor_id;sensor_type;location;lat;lon;timestamp;pressure;altitude;pressure_sealevel;temperature;humidity
18918;BME280;9591;52.742;13.650;2023-02-18T00:02:10;100892.03;;;9.00;90.58
18918;BME280;9591;52.742;13.650;2023-02-18T00:04:58;100876.25;;;8.97;90.85
18918;BME280;9591;52.742;13.650;2023-02-18T00:07:46;100861.06;;;9.06;90.47
18918;BME280;9591;52.742;13.650;2023-02-18T00:10:33;100869.31;;;8.93;91.05
18918;BME280;9591;52.742;13.650;2023-02-18T00:13:21;100876.03;;;9.06;90.39
18918;BME280;9591;52.742;13.650;2023-02-18T00:16:12;100857.63;;;9.03;89.78
18918;BME280;9591;52.742;13.650;2023-02-18T00:19:02;100855.84;;;9.03;90.35
18918;BME280;9591;52.742;13.650;2023-02-18T00:21:50;100859.97;;;9.15;89.82
18918;BME280;9591;52.742;13.650;2023-02-18T00:24:38;100869.34;;;8.91;91.55
18918;BME280;9591;52.742;13.650;2023-02-18T00:27:26;100868.34;;;8.95;91.51
18918;BME280;9591;52.742;13.650;2023-02-18T00:30:15;100859.09;;;8.77;91.65
18918;BME280;9591;52.742;13.650;2023-02-18T00:33:05;100872.88;;;8.90;92.15
18918;BME280;9591;52.742;13.650;2023-02-18T00:36:00;100880.63;;;8.98;91.41
18918;BME280;9591;52.742;13.650;2023-02-18T00:38:53;100871.16;;;8.89;92.36
18918;BME280;9591;52.742;13.650;2023-02-18T00:41:43;100865.44;;;8.69;93.52
18918;BME280;9591;52.742;13.650;2023-02-18T00:44:32;100861.72;;;8.77;92.93
18918;BME280;9591;52.742;13.650;2023-02-18T00:47:21;100875.81;;;8.78;92.65
18918;BME280;9591;52.742;13.650;2023-02-18T00:50:11;100860.25;;;8.66;92.71
18918;BME280;9591;52.742;13.650;2023-02-18T00:52:59;100878.50;;;8.75;92.93
18918;BME280;9591;52.742;13.650;2023-02-18T00:55:47;100894.53;;;8.67;93.94
18918;BME280;9591;52.742;13.650;2023-02-18T00:58:35;100883.06;;;8.68;93.36
18918;BME280;9591;52.742;13.650;2023-02-18T01:01:22;100866.03;;;8.43;94.76
18918;BME280;9591;52.742;13.650;2023-02-18T01:04:10;100890.50;;;8.51;95.71
18918;BME280;9591;52.742;13.650;2023-02-18T01:06:59;100886.19;;;8.47;96.17
18918;BME280;9591;52.742;13.650;2023-02-18T01:09:47;100890.47;;;8.52;96.85
18918;BME280;9591;52.742;13.650;2023-02-18T01:12:34;100885.88;;;8.62;95.95
18918;BME280;9591;52.742;13.650;2023-02-18T01:15:21;100889.09;;;8.33;97.31
18918;BME280;9591;52.742;13.650;2023-02-18T01:18:08;100882.97;;;8.33;98.35
18918;BME280;9591;52.742;13.650;2023-02-18T01:20:55;100887.78;;;8.54;97.32
18918;BME280;9591;52.742;13.650;2023-02-18T01:23:44;100894.94;;;8.49;97.08
18918;BME280;9591;52.742;13.650;2023-02-18T01:26:33;100886.31;;;8.41;97.97
18918;BME280;9591;52.742;13.650;2023-02-18T01:29:20;100891.06;;;8.22;99.48
18918;BME280;9591;52.742;13.650;2023-02-18T01:32:06;100886.31;;;8.41;98.63
18918;BME280;9591;52.742;13.650;2023-02-18T01:34:53;100899.56;;;8.38;98.50
18918;BME280;9591;52.742;13.650;2023-02-18T01:37:40;100883.78;;;8.36;98.97
18918;BME280;9591;52.742;13.650;2023-02-18T01:40:29;100891.06;;;8.22;100.00
18918;BME280;9591;52.742;13.650;2023-02-18T01:43:18;100882.94;;;8.34;99.71
18918;BME280;9591;52.742;13.650;2023-02-18T01:46:11;100882.28;;;8.21;99.46
18918;BME280;9591;52.742;13.650;2023-02-18T01:49:02;100891.84;;;8.27;99.96
18918;BME280;9591;52.742;13.650;2023-02-18T01:51:53;100880.38;;;8.28;100.00
18918;BME280;9591;52.742;13.650;2023-02-18T01:54:43;100886.56;;;8.27;100.00
18918;BME280;9591;52.742;13.650;2023-02-18T01:57:34;100851.72;;;8.10;100.00
18918;BME280;9591;52.742;13.650;2023-02-18T02:00:23;100890.53;;;8.05;100.00
18918;BME280;9591;52.742;13.650;2023-02-18T02:03:09;100893.47;;;8.36;99.39
18918;BME280;9591;52.742;13.650;2023-02-18T02:06:00;100900.09;;;8.10;100.00
18918;BME280;9591;52.742;13.650;2023-02-18T02:08:48;100896.22;;;8.28;100.00
18918;BME280;9591;52.742;13.650;2023-02-18T02:11:59;100896.69;;;8.04;100.00
18918;BME280;9591;52.742;13.650;2023-02-18T02:15:03;100885.00;;;8.17;100.00
18918;BME280;9591;52.742;13.650;2023-02-18T02:18:08;100887.81;;;8.08;100.00
18918;BME280;9591;52.742;13.650;2023-02-18T02:24:56;100901.72;;;8.16;100.00
18918;BME280;9591;52.742;13.650;2023-02-18T02:28:18;100899.28;;;8.07;100.00
18918;BME280;9591;52.742;13.650;2023-02-18T02:31:34;100903.66;;;8.08;100.00
18918;BME280;9591;52.742;13.650;2023-02-18T02:34:49;100912.09;;;8.25;100.00
18918;BME280;9591;52.742;13.650;2023-02-18T02:37:43;100910.72;;;8.06;100.00
18918;BME280;9591;52.742;13.650;2023-02-18T02:40:37;100911.63;;;8.05;100.00
18918;BME280;9591;52.742;13.650;2023-02-18T02:43:32;100910.50;;;8.16;100.00
18918;BME280;9591;52.742;13.650;2023-02-18T02:46:26;100906.97;;;8.17;100.00
18918;BME280;9591;52.742;13.650;2023-02-18T02:49:23;100913.22;;;8.13;100.00
18918;BME280;9591;52.742;13.650;2023-02-18T02:52:17;100921.91;;;8.18;100.00
18918;BME280;9591;52.742;13.650;2023-02-18T02:55:08;100930.69;;;8.19;100.00
18918;BME280;9591;52.742;13.650;2023-02-18T02:57:58;100938.66;;;8.16;100.00
18918;BME280;9591;52.742;13.650;2023-02-18T03:01:04;100912.63;;;7.98;100.00
18918;BME280;9591;52.742;13.650;2023-02-18T03:07:46;100926.06;;;7.84;100.00
18918;BME280;9591;52.742;13.650;2023-02-18T03:10:45;100933.66;;;8.02;100.00
18918;BME280;9591;52.742;13.650;2023-02-18T03:13:43;100930.31;;;7.93;100.00
18918;BME280;9591;52.742;13.650;2023-02-18T03:16:44;100925.00;;;7.94;100.00
18918;BME280;9591;52.742;13.650;2023-02-18T03:19:35;100935.31;;;8.08;100.00
18918;BME280;9591;52.742;13.650;2023-02-18T03:22:28;100923.13;;;8.01;100.00
18918;BME280;9591;52.742;13.650;2023-02-18T03:25:20;100942.47;;;8.01;100.00
18918;BME280;9591;52.742;13.650;2023-02-18T03:28:10;100939.78;;;8.03;100.00
18918;BME280;9591;52.742;13.650;2023-02-18T03:31:02;100937.28;;;7.97;100.00
18918;BME280;9591;52.742;13.650;2023-02-18T03:33:54;100941.63;;;7.99;100.00
18918;BME280;9591;52.742;13.650;2023-02-18T03:36:42;100926.56;;;8.06;100.00
18918;BME280;9591;52.742;13.650;2023-02-18T03:39:34;100924.56;;;8.18;100.00
18918;BME280;9591;52.742;13.650;2023-02-18T03:42:25;100921.28;;;8.06;100.00
18918;BME280;9591;52.742;13.650;2023-02-18T03:45:12;100923.94;;;8.04;100.00
18918;BME280;9591;52.742;13.650;2023-02-18T03:47:59;100925.66;;;8.07;100.00
18918;BME280;9591;52.742;13.650;2023-02-18T03:50:46;100928.47;;;7.98;100.00
18918;BME280;9591;52.742;13.650;2023-02-18T03:53:33;100921.16;;;8.12;100.00
18918;BME280;9591;52.742;13.650;2023-02-18T03:56:20;100930.22;;;7.97;100.00
18918;BME280;9591;52.742;13.650;2023-02-18T03:59:08;100936.28;;;8.02;100.00
18918;BME280;9591;52.742;13.650;2023-02-18T04:01:54;100934.59;;;7.98;100.00
18918;BME280;9591;52.742;13.650;2023-02-18T04:04:41;100936.28;;;8.02;100.00
18918;BME280;9591;52.742;13.650;2023-02-18T04:07:28;100934.63;;;7.97;100.00
18918;BME280;9591;52.742;13.650;2023-02-18T04:10:15;100944.16;;;8.04;100.00
18918;BME280;9591;52.742;13.650;2023-02-18T04:13:01;100939.88;;;7.98;100.00
18918;BME280;9591;52.742;13.650;2023-02-18T04:15:50;100942.81;;;7.81;100.00
18918;BME280;9591;52.742;13.650;2023-02-18T04:18:37;100945.38;;;7.86;100.00
18918;BME280;9591;52.742;13.650;2023-02-18T04:21:24;100949.44;;;8.04;100.00
18918;BME280;9591;52.742;13.650;2023-02-18T04:24:11;100949.63;;;7.95;100.00
18918;BME280;9591;52.742;13.650;2023-02-18T04:26:57;100942.53;;;7.97;100.00
18918;BME280;9591;52.742;13.650;2023-02-18T04:29:44;100963.69;;;7.94;100.00
18918;BME280;9591;52.742;13.650;2023-02-18T04:32:32;100947.72;;;8.03;100.00
18918;BME280;9591;52.742;13.650;2023-02-18T04:35:19;100950.44;;;7.98;100.00
18918;BME280;9591;52.742;13.650;2023-02-18T04:38:06;100954.31;;;7.79;100.00
18918;BME280;9591;52.742;13.650;2023-02-18T04:40:53;100952.34;;;7.88;100.00
18918;BME280;9591;52.742;13.650;2023-02-18T04:43:40;100957.56;;;7.93;100.00
18918;BME280;9591;52.742;13.650;2023-02-18T04:46:27;100943.84;;;7.74;100.00
18918;BME280;9591;52.742;13.650;2023-02-18T04:49:15;100944.31;;;7.96;100.00
18918;BME280;9591;52.742;13.650;2023-02-18T04:52:03;100961.53;;;8.17;100.00
18918;BME280;9591;52.742;13.650;2023-02-18T04:54:49;100967.84;;;8.07;100.00
18918;BME280;9591;52.742;13.650;2023-02-18T04:57:36;100969.66;;;8.05;100.00
18918;BME280;9591;52.742;13.650;2023-02-18T05:00:23;100952.47;;;7.82;100.00
18918;BME280;9591;52.742;13.650;2023-02-18T05:03:09;100970.75;;;7.92;100.00
18918;BME280;9591;52.742;13.650;2023-02-18T05:05:58;100966.91;;;8.11;100.00
18918;BME280;9591;52.742;13.650;2023-02-18T05:08:45;100955.41;;;8.15;100.00
18918;BME280;9591;52.742;13.650;2023-02-18T05:11:31;100962.63;;;8.05;100.00
18918;BME280;9591;52.742;13.650;2023-02-18T05:14:18;100963.50;;;8.04;100.00
18918;BME280;9591;52.742;13.650;2023-02-18T05:17:05;100950.41;;;8.00;100.00
18918;BME280;9591;52.742;13.650;2023-02-18T05:19:52;100957.28;;;8.08;99.19
18918;BME280;9591;52.742;13.650;2023-02-18T05:22:40;100969.38;;;8.20;98.70
18918;BME280;9591;52.742;13.650;2023-02-18T05:25:27;100971.09;;;8.22;98.39
18918;BME280;9591;52.742;13.650;2023-02-18T05:28:14;100969.19;;;8.31;97.78
18918;BME280;9591;52.742;13.650;2023-02-18T05:31:01;100964.13;;;8.18;97.32
18918;BME280;9591;52.742;13.650;2023-02-18T05:33:48;100967.78;;;8.11;97.61
18918;BME280;9591;52.742;13.650;2023-02-18T05:36:35;100958.16;;;8.09;97.22
18918;BME280;9591;52.742;13.650;2023-02-18T05:39:23;100966.84;;;8.14;96.49
18918;BME280;9591;52.742;13.650;2023-02-18T05:42:10;100964.31;;;8.08;97.01
18918;BME280;9591;52.742;13.650;2023-02-18T05:44:56;100955.44;;;8.13;96.50
18918;BME280;9591;52.742;13.650;2023-02-18T05:47:43;100954.69;;;8.05;96.47
18918;BME280;9591;52.742;13.650;2023-02-18T05:50:30;100964.50;;;7.97;95.85
18918;BME280;9591;52.742;13.650;2023-02-18T05:53:17;100974.88;;;8.08;96.47
18918;BME280;9591;52.742;13.650;2023-02-18T05:56:05;100963.38;;;8.12;95.74
18918;BME280;9591;52.742;13.650;2023-02-18T05:58:52;100976.53;;;8.13;95.78
18918;BME280;9591;52.742;13.650;2023-02-18T06:01:39;100962.59;;;8.07;95.48
18918;BME280;9591;52.742;13.650;2023-02-18T06:04:26;100970.34;;;8.16;94.83
18918;BME280;9591;52.742;13.650;2023-02-18T06:07:13;100979.28;;;8.07;94.80
18918;BME280;9591;52.742;13.650;2023-02-18T06:10:00;100969.09;;;8.37;93.44
18918;BME280;9591;52.742;13.650;2023-02-18T06:12:48;100975.28;;;8.34;93.54
18918;BME280;9591;52.742;13.650;2023-02-18T06:15:35;100954.88;;;8.44;92.51
18918;BME280;9591;52.742;13.650;2023-02-18T06:18:21;100960.16;;;8.44;91.38
18918;BME280;9591;52.742;13.650;2023-02-18T06:21:09;100951.28;;;8.48;92.11
18918;BME280;9591;52.742;13.650;2023-02-18T06:23:56;100959.91;;;8.56;90.90
18918;BME280;9591;52.742;13.650;2023-02-18T06:26:43;100959.81;;;8.61;90.51
18918;BME280;9591;52.742;13.650;2023-02-18T06:29:31;100968.66;;;8.58;89.82
18918;BME280;9591;52.742;13.650;2023-02-18T06:32:20;100964.31;;;8.56;90.91
18918;BME280;9591;52.742;13.650;2023-02-18T06:35:07;100944.75;;;8.66;90.25
18918;BME280;9591;52.742;13.650;2023-02-18T06:37:53;100944.81;;;8.63;90.50
18918;BME280;9591;52.742;13.650;2023-02-18T06:40:40;100940.41;;;8.63;90.54
18918;BME280;9591;52.742;13.650;2023-02-18T06:43:27;100940.84;;;8.42;91.09
18918;BME280;9591;52.742;13.650;2023-02-18T06:46:16;100939.41;;;8.67;89.61
18918;BME280;9591;52.742;13.650;2023-02-18T06:49:03;100945.63;;;8.66;89.18
18918;BME280;9591;52.742;13.650;2023-02-18T06:51:49;100922.09;;;8.56;89.49
18918;BME280;9591;52.742;13.650;2023-02-18T06:54:36;100936.19;;;8.54;90.29
18918;BME280;9591;52.742;13.650;2023-02-18T06:57:23;100947.44;;;8.64;89.44
18918;BME280;9591;52.742;13.650;2023-02-18T07:00:11;100941.88;;;8.75;89.20
18918;BME280;9591;52.742;13.650;2023-02-18T07:02:59;100945.22;;;8.83;88.17
18918;BME280;9591;52.742;13.650;2023-02-18T07:05:45;100952.97;;;8.92;87.76
18918;BME280;9591;52.742;13.650;2023-02-18T07:08:32;100937.97;;;8.93;87.36
18918;BME280;9591;52.742;13.650;2023-02-18T07:11:20;100944.13;;;8.93;87.25
18918;BME280;9591;52.742;13.650;2023-02-18T07:14:07;100936.44;;;8.82;87.79
18918;BME280;9591;52.742;13.650;2023-02-18T07:16:54;100938.09;;;8.88;86.39
18918;BME280;9591;52.742;13.650;2023-02-18T07:19:42;100942.47;;;8.89;87.46
18918;BME280;9591;52.742;13.650;2023-02-18T07:22:29;100937.84;;;8.99;87.15
18918;BME280;9591;52.742;13.650;2023-02-18T07:25:16;100935.91;;;9.07;86.42
18918;BME280;9591;52.742;13.650;2023-02-18T07:28:04;100941.69;;;9.23;85.95
18918;BME280;9591;52.742;13.650;2023-02-18T07:30:51;100939.00;;;9.26;86.33
18918;BME280;9591;52.742;13.650;2023-02-18T07:33:38;100947.13;;;9.16;86.59
18918;BME280;9591;52.742;13.650;2023-02-18T07:36:26;100947.78;;;9.26;85.61
18918;BME280;9591;52.742;13.650;2023-02-18T07:39:13;100938.28;;;9.17;85.58
18918;BME280;9591;52.742;13.650;2023-02-18T07:42:01;100928.31;;;9.30;85.60
18918;BME280;9591;52.742;13.650;2023-02-18T07:44:50;100922.22;;;9.27;85.54
18918;BME280;9591;52.742;13.650;2023-02-18T07:47:37;100921.47;;;9.22;86.16
18918;BME280;9591;52.742;13.650;2023-02-18T07:50:23;100923.91;;;9.31;85.36
18918;BME280;9591;52.742;13.650;2023-02-18T07:53:14;100916.16;;;9.23;84.98
18918;BME280;9591;52.742;13.650;2023-02-18T07:56:01;100915.59;;;9.46;84.12
18918;BME280;9591;52.742;13.650;2023-02-18T07:58:48;100910.16;;;9.52;83.10
18918;BME280;9591;52.742;13.650;2023-02-18T08:01:35;100919.00;;;9.51;83.76
18918;BME280;9591;52.742;13.650;2023-02-18T08:04:22;100908.91;;;9.65;82.42
18918;BME280;9591;52.742;13.650;2023-02-18T08:07:12;100901.59;;;9.42;83.67
18918;BME280;9591;52.742;13.650;2023-02-18T08:10:00;100905.84;;;9.48;84.22
18918;BME280;9591;52.742;13.650;2023-02-18T08:12:47;100894.53;;;9.75;83.27
18918;BME280;9591;52.742;13.650;2023-02-18T08:15:34;100887.84;;;9.95;82.31
18918;BME280;9591;52.742;13.650;2023-02-18T08:18:23;100885.56;;;9.81;83.20
18918;BME280;9591;52.742;13.650;2023-02-18T08:21:10;100882.78;;;9.87;82.21
18918;BME280;9591;52.742;13.650;2023-02-18T08:23:57;100890.75;;;9.85;83.10
18918;BME280;9591;52.742;13.650;2023-02-18T08:26:46;100874.63;;;9.95;85.10
18918;BME280;9591;52.742;13.650;2023-02-18T08:29:45;100876.97;;;10.05;84.21
18918;BME280;9591;52.742;13.650;2023-02-18T08:32:32;100885.03;;;10.01;84.04
18918;BME280;9591;52.742;13.650;2023-02-18T08:35:19;100884.53;;;10.19;83.64
18918;BME280;9591;52.742;13.650;2023-02-18T08:38:05;100865.41;;;10.09;84.05
18918;BME280;9591;52.742;13.650;2023-02-18T08:41:00;100861.88;;;10.09;84.07
18918;BME280;9591;52.742;13.650;2023-02-18T08:43:50;100861.72;;;10.15;82.76
18918;BME280;9591;52.742;13.650;2023-02-18T08:46:37;100866.00;;;10.50;81.19
18918;BME280;9591;52.742;13.650;2023-02-18T08:49:24;100860.69;;;10.50;81.96
18918;BME280;9591;52.742;13.650;2023-02-18T08:52:11;100847.56;;;10.16;84.79
18918;BME280;9591;52.742;13.650;2023-02-18T08:54:58;100849.38;;;10.45;83.53
18918;BME280;9591;52.742;13.650;2023-02-18T08:57:45;100846.53;;;10.51;83.51
18918;BME280;9591;52.742;13.650;2023-02-18T09:00:33;100857.63;;;10.64;81.81
18918;BME280;9591;52.742;13.650;2023-02-18T09:03:20;100852.16;;;10.40;83.61
18918;BME280;9591;52.742;13.650;2023-02-18T09:06:07;100850.84;;;10.55;82.70
18918;BME280;9591;52.742;13.650;2023-02-18T09:08:54;100840.97;;;10.32;85.33
18918;BME280;9591;52.742;13.650;2023-02-18T09:11:41;100831.84;;;10.41;86.19
18918;BME280;9591;52.742;13.650;2023-02-18T09:14:28;100844.00;;;10.17;88.24
18918;BME280;9591;52.742;13.650;2023-02-18T09:17:16;100836.13;;;10.15;88.79
18918;BME280;9591;52.742;13.650;2023-02-18T09:20:04;100835.50;;;10.06;92.05
18918;BME280;9591;52.742;13.650;2023-02-18T09:22:51;100824.81;;;9.78;97.78
18918;BME280;9591;52.742;13.650;2023-02-18T09:25:38;100832.00;;;9.73;100.00
18918;BME280;9591;52.742;13.650;2023-02-18T09:28:25;100829.38;;;9.73;100.00
18918;BME280;9591;52.742;13.650;2023-02-18T09:31:14;100825.72;;;9.77;100.00
18918;BME280;9591;52.742;13.650;2023-02-18T09:34:02;100811.75;;;9.72;100.00
18918;BME280;9591;52.742;13.650;2023-02-18T09:36:49;100810.06;;;9.69;100.00
18918;BME280;9591;52.742;13.650;2023-02-18T09:39:36;100809.41;;;9.61;100.00
18918;BME280;9591;52.742;13.650;2023-02-18T09:42:27;100807.03;;;9.52;100.00
18918;BME280;9591;52.742;13.650;2023-02-18T09:45:15;100804.44;;;9.50;100.00
18918;BME280;9591;52.742;13.650;2023-02-18T09:48:03;100810.59;;;9.51;100.00
18918;BME280;9591;52.742;13.650;2023-02-18T09:50:52;100801.69;;;9.53;100.00
18918;BME280;9591;52.742;13.650;2023-02-18T09:53:40;100781.88;;;9.37;100.00
18918;BME280;9591;52.742;13.650;2023-02-18T09:56:32;100776.34;;;9.46;100.00
18918;BME280;9591;52.742;13.650;2023-02-18T09:59:21;100751.31;;;9.58;100.00
18918;BME280;9591;52.742;13.650;2023-02-18T10:02:11;100738.72;;;9.68;100.00
18918;BME280;9591;52.742;13.650;2023-02-18T10:05:02;100754.16;;;9.52;100.00
18918;BME280;9591;52.742;13.650;2023-02-18T10:07:53;100757.31;;;9.34;100.00
18918;BME280;9591;52.742;13.650;2023-02-18T10:10:43;100760.41;;;9.49;100.00
18918;BME280;9591;52.742;13.650;2023-02-18T10:13:32;100738.97;;;9.90;100.00
18918;BME280;9591;52.742;13.650;2023-02-18T10:16:21;100715.56;;;9.76;100.00
18918;BME280;9591;52.742;13.650;2023-02-18T10:19:20;100728.38;;;9.90;100.00
18918;BME280;9591;52.742;13.650;2023-02-18T10:22:09;100721.66;;;9.78;100.00
18918;BME280;9591;52.742;13.650;2023-02-18T10:25:02;100716.34;;;9.79;100.00
18918;BME280;9591;52.742;13.650;2023-02-18T10:27:52;100704.78;;;9.82;100.00
18918;BME280;9591;52.742;13.650;2023-02-18T10:30:41;100699.09;;;9.96;100.00
18918;BME280;9591;52.742;13.650;2023-02-18T10:33:33;100695.44;;;9.70;100.00
18918;BME280;9591;52.742;13.650;2023-02-18T10:36:24;100684.69;;;9.76;100.00
18918;BME280;9591;52.742;13.650;2023-02-18T10:39:20;100665.25;;;9.77;100.00
18918;BME280;9591;52.742;13.650;2023-02-18T10:42:23;100650.84;;;9.88;100.00
18918;BME280;9591;52.742;13.650;2023-02-18T10:45:21;100642.31;;;9.78;100.00
18918;BME280;9591;52.742;13.650;2023-02-18T10:48:32;100629.31;;;9.70;100.00
18918;BME280;9591;52.742;13.650;2023-02-18T10:51:24;100616.91;;;9.72;100.00
18918;BME280;9591;52.742;13.650;2023-02-18T10:54:13;100580.31;;;9.59;100.00
18918;BME280;9591;52.742;13.650;2023-02-18T10:57:00;100602.63;;;9.50;100.00
18918;BME280;9591;52.742;13.650;2023-02-18T11:00:00;100598.69;;;9.63;100.00
18918;BME280;9591;52.742;13.650;2023-02-18T11:03:08;100595.22;;;9.61;100.00
18918;BME280;9591;52.742;13.650;2023-02-18T11:05:56;100587.47;;;9.55;100.00
18918;BME280;9591;52.742;13.650;2023-02-18T11:08:44;100566.13;;;9.61;100.00
18918;BME280;9591;52.742;13.650;2023-02-18T11:11:35;100567.06;;;9.60;100.00
18918;BME280;9591;52.742;13.650;2023-02-18T11:14:36;100559.41;;;9.79;100.00
18918;BME280;9591;52.742;13.650;2023-02-18T11:17:29;100549.88;;;9.73;100.00
18918;BME280;9591;52.742;13.650;2023-02-18T11:20:31;100543.53;;;9.52;100.00
18918;BME280;9591;52.742;13.650;2023-02-18T11:23:19;100540.84;;;9.25;100.00
18918;BME280;9591;52.742;13.650;2023-02-18T11:26:12;100541.88;;;9.48;100.00
18918;BME280;9591;52.742;13.650;2023-02-18T11:29:02;100541.88;;;9.48;100.00
18918;BME280;9591;52.742;13.650;2023-02-18T11:31:53;100547.88;;;9.53;100.00
18918;BME280;9591;52.742;13.650;2023-02-18T11:34:42;100534.59;;;9.55;100.00
18918;BME280;9591;52.742;13.650;2023-02-18T11:37:32;100539.19;;;9.50;100.00
18918;BME280;9591;52.742;13.650;2023-02-18T11:40:21;100534.56;;;9.57;100.00
18918;BME280;9591;52.742;13.650;2023-02-18T11:43:12;100516.59;;;9.40;100.00
18918;BME280;9591;52.742;13.650;2023-02-18T11:46:08;100511.13;;;9.46;100.00
18918;BME280;9591;52.742;13.650;2023-02-18T11:48:55;100497.13;;;9.42;100.00
18918;BME280;9591;52.742;13.650;2023-02-18T11:52:05;100484.50;;;9.52;100.00
18918;BME280;9591;52.742;13.650;2023-02-18T11:55:02;100472.94;;;9.54;100.00
18918;BME280;9591;52.742;13.650;2023-02-18T11:57:54;100479.69;;;9.63;100.00
18918;BME280;9591;52.742;13.650;2023-02-18T12:00:43;100475.75;;;9.76;100.00
18918;BME280;9591;52.742;13.650;2023-02-18T12:03:37;100461.50;;;9.80;100.00
18918;BME280;9591;52.742;13.650;2023-02-18T12:06:27;100400.50;;;9.34;100.00
18918;BME280;9591;52.742;13.650;2023-02-18T12:09:25;100460.03;;;9.98;100.00
18918;BME280;9591;52.742;13.650;2023-02-18T12:12:15;100445.31;;;9.90;100.00
18918;BME280;9591;52.742;13.650;2023-02-18T12:15:03;100425.63;;;9.47;100.00
18918;BME280;9591;52.742;13.650;2023-02-18T12:18:13;100416.03;;;9.69;100.00
18918;BME280;9591;52.742;13.650;2023-02-18T12:21:16;100416.78;;;9.48;100.00
18918;BME280;9591;52.742;13.650;2023-02-18T12:24:17;100413.31;;;9.46;100.00
18918;BME280;9591;52.742;13.650;2023-02-18T12:27:14;100403.22;;;9.57;100.00
18918;BME280;9591;52.742;13.650;2023-02-18T12:30:27;100395.88;;;9.92;100.00
18918;BME280;9591;52.742;13.650;2023-02-18T12:33:24;100379.81;;;9.71;100.00
18918;BME280;9591;52.742;13.650;2023-02-18T12:36:22;100364.56;;;9.79;100.00
18918;BME280;9591;52.742;13.650;2023-02-18T12:39:29;100364.47;;;9.82;100.00
18918;BME280;9591;52.742;13.650;2023-02-18T12:42:38;100367.53;;;9.95;100.00
18918;BME280;9591;52.742;13.650;2023-02-18T12:45:43;100359.31;;;9.78;100.00
18918;BME280;9591;52.742;13.650;2023-02-18T12:48:54;100344.44;;;9.75;100.00
18918;BME280;9591;52.742;13.650;2023-02-18T12:51:56;100331.97;;;9.79;100.00
18918;BME280;9591;52.742;13.650;2023-02-18T12:55:07;100315.94;;;9.83;100.00
18918;BME280;9591;52.742;13.650;2023-02-18T12:58:09;100315.44;;;9.97;100.00
18918;BME280;9591;52.742;13.650;2023-02-18T13:01:16;100314.28;;;10.04;100.00
18918;BME280;9591;52.742;13.650;2023-02-18T13:04:21;100305.66;;;9.99;100.00
18918;BME280;9591;52.742;13.650;2023-02-18T13:07:22;100297.66;;;10.01;100.00
18918;BME280;9591;52.742;13.650;2023-02-18T13:10:35;100284.88;;;9.89;100.00
18918;BME280;9591;52.742;13.650;2023-02-18T13:13:32;100276.25;;;9.83;100.00
18918;BME280;9591;52.742;13.650;2023-02-18T13:16:20;100274.59;;;9.81;100.00
18918;BME280;9591;52.742;13.650;2023-02-18T13:19:16;100264.94;;;9.80;100.00
18918;BME280;9591;52.742;13.650;2023-02-18T13:22:05;100255.03;;;9.85;100.00
18918;BME280;9591;52.742;13.650;2023-02-18T13:24:54;100255.56;;;9.95;100.00
18918;BME280;9591;52.742;13.650;2023-02-18T13:27:47;100259.53;;;10.06;100.00
18918;BME280;9591;52.742;13.650;2023-02-18T13:30:42;100253.94;;;9.91;100.00
18918;BME280;9591;52.742;13.650;2023-02-18T13:33:35;100248.78;;;10.11;100.00
18918;BME280;9591;52.742;13.650;2023-02-18T13:36:35;100238.56;;;10.02;100.00
18918;BME280;9591;52.742;13.650;2023-02-18T13:39:27;100239.25;;;10.07;100.00
18918;BME280;9591;52.742;13.650;2023-02-18T13:42:30;100232.91;;;10.11;100.00
18918;BME280;9591;52.742;13.650;2023-02-18T13:45:27;100229.09;;;10.18;100.00
18918;BME280;9591;52.742;13.650;2023-02-18T13:48:26;100226.81;;;10.32;100.00
18918;BME280;9591;52.742;13.650;2023-02-18T13:51:16;100218.50;;;10.41;100.00
18918;BME280;9591;52.742;13.650;2023-02-18T13:54:11;100220.59;;;10.55;100.00
18918;BME280;9591;52.742;13.650;2023-02-18T13:57:03;100213.03;;;10.68;100.00
18918;BME280;9591;52.742;13.650;2023-02-18T13:59:56;100221.69;;;10.49;100.00
18918;BME280;9591;52.742;13.650;2023-02-18T14:02:55;100222.94;;;10.63;100.00
18918;BME280;9591;52.742;13.650;2023-02-18T14:05:44;100228.38;;;10.38;100.00
18918;BME280;9591;52.742;13.650;2023-02-18T14:08:33;100238.16;;;10.36;100.00
18918;BME280;9591;52.742;13.650;2023-02-18T14:11:39;100221.41;;;10.35;100.00
18918;BME280;9591;52.742;13.650;2023-02-18T14:14:37;100221.28;;;10.38;100.00
18918;BME280;9591;52.742;13.650;2023-02-18T14:17:38;100214.94;;;10.42;100.00
18918;BME280;9591;52.742;13.650;2023-02-18T14:20:46;100201.06;;;10.58;100.00
18918;BME280;9591;52.742;13.650;2023-02-18T14:23:43;100205.13;;;10.44;100.00
18918;BME280;9591;52.742;13.650;2023-02-18T14:26:45;100208.47;;;10.49;100.00
18918;BME280;9591;52.742;13.650;2023-02-18T14:29:32;100203.09;;;10.51;100.00
18918;BME280;9591;52.742;13.650;2023-02-18T14:32:19;100208.34;;;10.52;100.00
18918;BME280;9591;52.742;13.650;2023-02-18T14:35:21;100197.72;;;10.32;100.00
18918;BME280;9591;52.742;13.650;2023-02-18T14:38:30;100200.66;;;10.46;100.00
18918;BME280;9591;52.742;13.650;2023-02-18T14:41:37;100249.03;;;10.28;100.00
18918;BME280;9591;52.742;13.650;2023-02-18T14:44:38;100226.00;;;10.07;100.00
18918;BME280;9591;52.742;13.650;2023-02-18T14:47:41;100260.34;;;10.08;100.00
18918;BME280;9591;52.742;13.650;2023-02-18T14:50:38;100279.63;;;10.12;100.00
18918;BME280;9591;52.742;13.650;2023-02-18T14:53:28;100248.84;;;9.86;100.00
18918;BME280;9591;52.742;13.650;2023-02-18T14:56:17;100262.91;;;9.86;100.00
18918;BME280;9591;52.742;13.650;2023-02-18T14:59:05;100304.38;;;9.86;100.00
18918;BME280;9591;52.742;13.650;2023-02-18T15:01:53;100313.88;;;9.92;100.00
18918;BME280;9591;52.742;13.650;2023-02-18T15:04:40;100321.38;;;9.79;100.00
18918;BME280;9591;52.742;13.650;2023-02-18T15:07:27;100338.16;;;9.78;100.00